Time;durP1;ratioP1;P1;durP2;ratioP2;P2;SDS_P1;SDS_P2;PMS_P1;PMS_P2;Temp;Humidity;BMP_temperature;BMP_pressure;BME280_temperature;BME280_humidity;BME280_pressure;Samples;Min_cycle;Max_cycle;Signal;HPM_P1;HPM_P2
2022/07/19 00:01:12;;;;;;;7.10;5.90;;;22.70;56.10;;;;;;5065656;28;20258;-73
2022/07/19 00:03:37;;;;;;;8.07;4.87;;;22.70;56.40;;;;;;5070474;28;20230;-73
2022/07/19 00:06:03;;;;;;;9.07;5.50;;;22.60;56.50;;;;;;5065008;28;20568;-73
2022/07/19 00:08:29;;;;;;;5.73;4.77;;;22.50;56.60;;;;;;5070745;28;20191;-72
2022/07/19 00:10:54;;;;;;;7.37;5.23;;;22.50;57.20;;;;;;5066662;28;20903;-74
2022/07/19 00:13:21;;;;;;;8.43;5.60;;;22.60;57.00;;;;;;5066762;28;20195;-72
2022/07/19 00:15:46;;;;;;;7.23;5.83;;;22.50;57.20;;;;;;5061187;28;20707;-72
2022/07/19 00:18:14;;;;;;;9.87;4.83;;;22.50;57.20;;;;;;5070649;28;20524;-74
2022/07/19 00:20:39;;;;;;;6.60;4.83;;;22.30;57.60;;;;;;5067455;28;20537;-72
2022/07/19 00:23:05;;;;;;;8.37;5.33;;;22.30;57.80;;;;;;5067310;28;20505;-72
2022/07/19 00:25:30;;;;;;;8.47;5.50;;;22.30;57.80;;;;;;5074211;28;20211;-73
2022/07/19 00:27:56;;;;;;;7.60;5.00;;;22.30;58.10;;;;;;5079865;28;20265;-73
2022/07/19 00:30:21;;;;;;;8.80;5.70;;;22.20;58.20;;;;;;5065787;28;20192;-74
2022/07/19 00:32:47;;;;;;;11.53;5.90;;;22.20;58.40;;;;;;5064127;28;20244;-72
2022/07/19 00:35:13;;;;;;;9.00;5.10;;;22.10;58.10;;;;;;5063251;28;20207;-73
2022/07/19 00:37:38;;;;;;;5.30;4.30;;;22.00;58.80;;;;;;5065954;28;20262;-71
2022/07/19 00:40:04;;;;;;;7.80;5.00;;;21.90;59.20;;;;;;5068245;28;20213;-74
2022/07/19 00:42:30;;;;;;;5.93;5.00;;;21.90;59.20;;;;;;5069128;28;20186;-75
2022/07/19 00:44:56;;;;;;;13.53;5.03;;;21.90;59.20;;;;;;5065283;28;20484;-74
2022/07/19 00:47:21;;;;;;;5.50;4.70;;;21.90;59.20;;;;;;5068388;28;20183;-74
2022/07/19 00:49:47;;;;;;;9.20;6.03;;;21.90;59.30;;;;;;5063883;28;20185;-74
2022/07/19 00:52:15;;;;;;;6.17;4.90;;;21.90;59.30;;;;;;5062895;28;20187;-72
2022/07/19 00:54:43;;;;;;;8.40;5.70;;;21.80;59.20;;;;;;5066325;28;20202;-73
2022/07/19 00:57:09;;;;;;;7.90;5.50;;;21.90;58.80;;;;;;5065651;28;20431;-71
2022/07/19 00:59:36;;;;;;;7.80;5.40;;;21.90;58.90;;;;;;5066861;28;20563;-72
2022/07/19 01:02:01;;;;;;;7.17;5.53;;;21.90;58.90;;;;;;5063181;28;20418;-74
2022/07/19 01:04:28;;;;;;;15.00;5.90;;;21.80;59.20;;;;;;5065215;28;20485;-74
2022/07/19 01:06:53;;;;;;;8.10;5.47;;;21.80;59.50;;;;;;5063086;28;20190;-72
2022/07/19 01:09:19;;;;;;;9.23;5.40;;;21.80;58.50;;;;;;5069237;28;20520;-72
2022/07/19 01:11:45;;;;;;;9.70;4.97;;;21.80;59.10;;;;;;5068082;28;20252;-71
2022/07/19 01:14:10;;;;;;;7.90;6.17;;;21.60;59.20;;;;;;5073352;28;20237;-71
2022/07/19 01:16:36;;;;;;;6.33;5.13;;;21.60;59.50;;;;;;5071498;28;20975;-73
2022/07/19 01:19:04;;;;;;;9.17;5.93;;;21.50;59.60;;;;;;5071143;28;20202;-73
2022/07/19 01:21:31;;;;;;;7.77;5.53;;;21.40;59.70;;;;;;5071959;28;20213;-74
2022/07/19 01:23:56;;;;;;;9.43;5.47;;;21.40;59.90;;;;;;5068053;28;20930;-72
2022/07/19 01:26:22;;;;;;;10.60;5.30;;;21.40;59.90;;;;;;5066125;28;20442;-73
2022/07/19 01:28:47;;;;;;;8.40;5.50;;;21.40;59.60;;;;;;5063050;28;20189;-73
2022/07/19 01:31:13;;;;;;;7.23;5.13;;;21.40;59.90;;;;;;5068940;28;20187;-72
2022/07/19 01:33:41;;;;;;;6.80;5.40;;;21.40;60.30;;;;;;5068938;28;20189;-71
2022/07/19 01:36:07;;;;;;;7.23;4.90;;;21.40;60.40;;;;;;5067264;28;20202;-73
2022/07/19 01:38:33;;;;;;;8.77;5.50;;;21.40;60.70;;;;;;5067620;28;20421;-72
2022/07/19 01:40:59;;;;;;;8.90;5.60;;;21.40;60.40;;;;;;5067181;28;20468;-74
2022/07/19 01:43:25;;;;;;;7.77;5.10;;;21.40;60.40;;;;;;5062394;28;20232;-73
2022/07/19 01:45:53;;;;;;;5.73;4.80;;;21.40;60.70;;;;;;5062702;28;20469;-73
2022/07/19 01:48:19;;;;;;;13.13;5.43;;;21.30;60.70;;;;;;5064070;28;20244;-71
2022/07/19 01:50:45;;;;;;;7.13;4.93;;;21.30;60.70;;;;;;5063950;28;20422;-73
2022/07/19 01:53:10;;;;;;;6.90;5.17;;;21.20;60.60;;;;;;5063495;28;20943;-74
2022/07/19 01:55:36;;;;;;;8.10;4.90;;;21.20;60.60;;;;;;5063035;28;20289;-73
2022/07/19 01:58:02;;;;;;;9.97;5.13;;;21.20;60.60;;;;;;5062103;28;20223;-74
2022/07/19 02:00:27;;;;;;;5.90;4.80;;;21.20;60.60;;;;;;5061393;28;20561;-72
2022/07/19 02:02:53;;;;;;;6.73;4.63;;;21.20;60.70;;;;;;5065940;28;20232;-73
2022/07/19 02:05:19;;;;;;;9.10;5.17;;;21.30;60.70;;;;;;5061726;28;20271;-74
2022/07/19 02:07:44;;;;;;;11.10;4.93;;;21.30;60.60;;;;;;5065395;28;20186;-75
2022/07/19 02:10:10;;;;;;;6.57;4.40;;;21.30;60.10;;;;;;5063015;28;20197;-75
2022/07/19 02:12:36;;;;;;;15.33;4.87;;;21.30;60.00;;;;;;5060505;28;20193;-74
2022/07/19 02:15:03;;;;;;;6.57;4.97;;;21.20;60.00;;;;;;5066205;28;20235;-73
2022/07/19 02:17:28;;;;;;;5.00;4.40;;;21.20;59.90;;;;;;5067244;28;20440;-72
2022/07/19 02:19:54;;;;;;;8.50;5.80;;;21.10;59.90;;;;;;5068947;28;20564;-72
2022/07/19 02:22:20;;;;;;;6.00;4.70;;;21.00;60.10;;;;;;5069716;28;20183;-74
2022/07/19 02:24:46;;;;;;;8.87;5.10;;;21.00;60.60;;;;;;5072246;28;20213;-74
2022/07/19 02:27:11;;;;;;;4.30;4.07;;;21.00;60.60;;;;;;5078481;28;20183;-71
2022/07/19 02:29:37;;;;;;;5.77;5.23;;;21.10;60.60;;;;;;5086253;28;20190;-72
2022/07/19 02:32:04;;;;;;;9.37;4.77;;;21.10;60.40;;;;;;5069137;28;20286;-74
2022/07/19 02:34:29;;;;;;;8.47;5.07;;;21.10;60.40;;;;;;5064069;28;20481;-72
2022/07/19 02:36:55;;;;;;;5.77;4.70;;;21.00;60.40;;;;;;5069816;28;20456;-73
2022/07/19 02:39:21;;;;;;;6.13;4.77;;;21.00;60.40;;;;;;5068673;28;20646;-73
2022/07/19 02:41:47;;;;;;;9.60;4.13;;;20.90;60.40;;;;;;5061267;28;20430;-74
2022/07/19 02:44:12;;;;;;;6.80;4.83;;;21.00;60.40;;;;;;5066377;28;20706;-72
2022/07/19 02:46:38;;;;;;;6.13;4.23;;;20.90;60.60;;;;;;5063477;28;20284;-71
2022/07/19 02:49:04;;;;;;;7.90;5.67;;;20.90;60.40;;;;;;5069250;28;20189;-71
2022/07/19 02:51:29;;;;;;;8.40;6.30;;;20.80;61.50;;;;;;5070547;28;20201;-73
2022/07/19 02:53:55;;;;;;;8.23;6.47;;;20.80;63.10;;;;;;5065577;28;20283;-71
2022/07/19 02:56:20;;;;;;;7.30;5.70;;;20.60;63.80;;;;;;5067234;28;20193;-72
2022/07/19 02:58:46;;;;;;;11.13;5.57;;;20.60;63.90;;;;;;5067049;28;20210;-72
2022/07/19 03:01:11;;;;;;;14.77;5.70;;;20.40;63.80;;;;;;5070992;28;20581;-73
2022/07/19 03:03:50;;;;;;;7.80;5.20;;;20.40;63.50;;;;;;5064309;28;20244;-71
2022/07/19 03:06:18;;;;;;;6.00;5.13;;;20.30;63.70;;;;;;5069655;28;20254;-72
2022/07/19 03:08:45;;;;;;;6.57;5.03;;;20.30;63.80;;;;;;5062616;28;20478;-71
2022/07/19 03:11:11;;;;;;;6.30;4.57;;;20.20;63.70;;;;;;5066016;28;21405;-73
2022/07/19 03:13:37;;;;;;;7.00;4.90;;;20.30;63.70;;;;;;5071994;28;20414;-71
2022/07/19 03:16:03;;;;;;;6.87;5.20;;;20.40;63.20;;;;;;5067837;28;20574;-73
2022/07/19 03:18:28;;;;;;;5.43;4.00;;;20.40;62.90;;;;;;5071777;28;20643;-72
2022/07/19 03:20:55;;;;;;;5.97;5.00;;;20.40;62.80;;;;;;5069306;28;20258;-73
2022/07/19 03:23:21;;;;;;;7.73;5.50;;;20.30;62.60;;;;;;5063641;28;20178;-74
2022/07/19 03:25:46;;;;;;;10.43;5.57;;;20.40;63.10;;;;;;5067462;28;21165;-72
2022/07/19 03:28:12;;;;;;;9.73;5.80;;;20.40;63.10;;;;;;5071076;28;20420;-73
2022/07/19 03:30:37;;;;;;;8.20;5.30;;;20.30;63.50;;;;;;5066846;28;20235;-72
2022/07/19 03:33:03;;;;;;;9.70;5.63;;;20.20;63.50;;;;;;5070387;28;20204;-72
2022/07/19 03:35:29;;;;;;;8.57;5.10;;;20.20;63.40;;;;;;5058097;28;20212;-72
2022/07/19 03:37:54;;;;;;;6.40;4.60;;;20.20;63.40;;;;;;5069390;28;20188;-74
2022/07/19 03:40:20;;;;;;;13.03;5.20;;;20.20;63.20;;;;;;5064611;28;20218;-75
2022/07/19 03:42:46;;;;;;;7.13;4.87;;;20.30;63.20;;;;;;5068838;28;20196;-74
2022/07/19 03:45:11;;;;;;;7.17;4.83;;;20.30;63.10;;;;;;5059452;28;20216;-72
2022/07/19 03:47:37;;;;;;;10.90;5.10;;;20.30;62.80;;;;;;5068762;28;20235;-72
2022/07/19 03:50:04;;;;;;;6.33;5.23;;;20.30;63.20;;;;;;5066803;28;20256;-72
2022/07/19 03:52:29;;;;;;;11.83;6.63;;;20.30;63.70;;;;;;5068029;28;20186;-72
2022/07/19 03:54:55;;;;;;;9.30;5.80;;;20.40;63.90;;;;;;5063304;28;20465;-72
2022/07/19 03:57:21;;;;;;;7.67;5.80;;;20.40;63.80;;;;;;5070452;28;20178;-73
2022/07/19 03:59:46;;;;;;;11.90;5.53;;;20.30;63.90;;;;;;5070890;28;20214;-72
2022/07/19 04:02:12;;;;;;;6.37;5.33;;;20.10;64.10;;;;;;5060638;28;20180;-73
2022/07/19 04:04:37;;;;;;;7.00;5.47;;;20.00;64.70;;;;;;5064650;28;20217;-72
2022/07/19 04:07:03;;;;;;;14.23;5.50;;;20.10;64.50;;;;;;5070844;28;20609;-72
2022/07/19 04:09:29;;;;;;;9.03;5.20;;;20.20;63.90;;;;;;5069966;28;20177;-72
2022/07/19 04:11:55;;;;;;;8.37;5.27;;;20.20;63.90;;;;;;5070064;28;20423;-73
2022/07/19 04:14:20;;;;;;;7.30;5.43;;;20.20;63.50;;;;;;5063050;28;20201;-74
2022/07/19 04:16:46;;;;;;;8.33;5.93;;;20.20;63.40;;;;;;5069071;28;20249;-72
2022/07/19 04:19:11;;;;;;;6.03;4.93;;;20.20;63.50;;;;;;5066515;28;20183;-73
2022/07/19 04:21:37;;;;;;;11.20;5.77;;;20.20;63.90;;;;;;5069091;28;20208;-71
2022/07/19 04:24:03;;;;;;;7.37;4.77;;;20.30;63.80;;;;;;5063928;28;20204;-75
2022/07/19 04:26:28;;;;;;;6.47;4.90;;;20.30;63.50;;;;;;5068140;28;20181;-74
2022/07/19 04:28:54;;;;;;;7.40;5.07;;;20.30;63.70;;;;;;5066532;28;20457;-71
2022/07/19 04:31:20;;;;;;;4.60;4.20;;;20.30;63.70;;;;;;5068561;28;20652;-72
2022/07/19 04:33:45;;;;;;;6.00;4.40;;;20.40;63.70;;;;;;5063745;28;20201;-72
2022/07/19 04:36:11;;;;;;;8.40;4.90;;;20.40;63.70;;;;;;5068337;28;20710;-73
2022/07/19 04:38:36;;;;;;;14.03;5.20;;;20.50;63.20;;;;;;5066348;28;20208;-74
2022/07/19 04:41:02;;;;;;;8.40;4.87;;;20.50;63.10;;;;;;5057678;28;20222;-72
2022/07/19 04:43:28;;;;;;;10.60;5.70;;;20.50;63.20;;;;;;5068723;28;20222;-71
2022/07/19 04:45:53;;;;;;;7.60;4.83;;;20.50;63.20;;;;;;5071281;28;20213;-72
2022/07/19 04:48:19;;;;;;;7.47;5.60;;;20.50;63.40;;;;;;5073291;28;20174;-72
2022/07/19 04:50:45;;;;;;;7.40;5.00;;;20.50;63.50;;;;;;5071337;28;20186;-72
2022/07/19 04:53:10;;;;;;;9.50;4.70;;;20.50;63.40;;;;;;5071318;28;20284;-72
2022/07/19 04:55:37;;;;;;;9.00;4.97;;;20.50;63.40;;;;;;5062298;28;20249;-73
2022/07/19 04:58:02;;;;;;;8.43;5.33;;;20.60;63.40;;;;;;5072690;28;20305;-73
2022/07/19 05:00:28;;;;;;;7.50;4.40;;;20.60;63.40;;;;;;5077463;28;20925;-74
2022/07/19 05:02:55;;;;;;;8.53;5.07;;;20.60;63.50;;;;;;5076109;28;20274;-75
2022/07/19 05:05:21;;;;;;;6.77;4.50;;;20.80;62.90;;;;;;5069893;28;20240;-74
2022/07/19 05:07:47;;;;;;;8.07;5.00;;;20.80;62.60;;;;;;5072793;28;20424;-76
2022/07/19 05:10:13;;;;;;;7.30;5.00;;;20.80;62.30;;;;;;5062337;28;20496;-78
2022/07/19 05:12:40;;;;;;;8.93;5.90;;;20.80;63.10;;;;;;5067543;28;20501;-76
2022/07/19 05:15:06;;;;;;;8.43;4.93;;;20.90;62.80;;;;;;5066428;28;20459;-76
2022/07/19 05:17:32;;;;;;;9.63;5.50;;;20.90;62.50;;;;;;5069602;28;20445;-75
2022/07/19 05:19:58;;;;;;;6.77;5.13;;;21.00;62.50;;;;;;5066140;28;20463;-73
2022/07/19 05:22:24;;;;;;;10.47;5.00;;;21.10;61.90;;;;;;5068125;28;20193;-74
2022/07/19 05:24:53;;;;;;;7.33;5.07;;;21.20;61.70;;;;;;5065756;28;20258;-72
2022/07/19 05:27:20;;;;;;;6.00;4.83;;;21.20;61.50;;;;;;5057535;28;21005;-76
2022/07/19 05:29:45;;;;;;;7.47;5.13;;;21.20;61.50;;;;;;5068206;28;20853;-74
2022/07/19 05:32:11;;;;;;;6.67;5.33;;;21.30;61.50;;;;;;5066762;28;20545;-74
2022/07/19 05:34:37;;;;;;;14.17;5.20;;;21.30;61.30;;;;;;5063957;28;20548;-73
2022/07/19 05:37:03;;;;;;;11.40;5.53;;;21.30;61.20;;;;;;5062886;28;20209;-76
2022/07/19 05:39:29;;;;;;;9.10;5.40;;;21.30;61.30;;;;;;5070873;28;20240;-75
2022/07/19 05:41:55;;;;;;;8.30;5.80;;;21.40;61.00;;;;;;5071498;28;20429;-73
2022/07/19 05:44:21;;;;;;;8.60;6.30;;;21.40;61.00;;;;;;5068079;28;20318;-74
2022/07/19 05:46:47;;;;;;;7.93;5.80;;;21.50;61.00;;;;;;5072161;28;20172;-73
2022/07/19 05:49:13;;;;;;;8.97;5.47;;;21.60;60.90;;;;;;5071545;28;20429;-75
2022/07/19 05:51:38;;;;;;;11.60;6.57;;;21.60;60.70;;;;;;5069465;28;20183;-75
2022/07/19 05:54:05;;;;;;;9.67;6.50;;;21.60;60.90;;;;;;5067501;28;20189;-73
2022/07/19 05:56:31;;;;;;;15.67;6.57;;;21.70;60.70;;;;;;5061921;28;20200;-74
2022/07/19 05:58:57;;;;;;;7.30;5.90;;;21.80;60.70;;;;;;5076901;28;20432;-73
2022/07/19 06:01:23;;;;;;;11.37;6.77;;;21.80;60.40;;;;;;5078963;28;20529;-76
2022/07/19 06:03:53;;;;;;;9.73;6.03;;;21.80;60.30;;;;;;5076509;28;20479;-75
2022/07/19 06:06:20;;;;;;;11.90;6.20;;;21.80;60.40;;;;;;5066611;28;20440;-74
2022/07/19 06:08:47;;;;;;;9.87;6.40;;;21.90;60.10;;;;;;5075676;28;20476;-72
2022/07/19 06:11:14;;;;;;;11.33;6.50;;;21.90;59.60;;;;;;5071184;28;20488;-73
2022/07/19 06:13:40;;;;;;;9.67;6.90;;;22.10;59.10;;;;;;5064094;28;20429;-73
2022/07/19 06:16:06;;;;;;;9.23;6.07;;;22.20;58.70;;;;;;5066050;28;21024;-72
2022/07/19 06:18:35;;;;;;;11.67;5.50;;;22.20;58.20;;;;;;5073440;28;20410;-75
2022/07/19 06:21:07;;;;;;;10.40;6.00;;;22.40;58.00;;;;;;5073147;28;20502;-73
2022/07/19 06:23:33;;;;;;;8.53;5.87;;;22.50;57.20;;;;;;5064227;28;20484;-73
2022/07/19 06:25:59;;;;;;;8.80;6.03;;;22.60;56.80;;;;;;5062372;28;20467;-74
2022/07/19 06:28:25;;;;;;;13.23;5.67;;;22.80;55.80;;;;;;5062849;28;20185;-73
2022/07/19 06:30:51;;;;;;;8.30;6.17;;;22.90;55.70;;;;;;5067281;28;20565;-71
2022/07/19 06:33:16;;;;;;;6.97;5.20;;;23.10;54.90;;;;;;5067402;28;20423;-73
2022/07/19 06:35:42;;;;;;;9.23;5.40;;;23.10;55.00;;;;;;5061921;28;20750;-73
2022/07/19 06:38:08;;;;;;;7.43;5.00;;;23.20;55.20;;;;;;5063546;28;20187;-72
2022/07/19 06:40:34;;;;;;;8.17;5.90;;;23.30;55.20;;;;;;5064750;28;20198;-72
2022/07/19 06:42:59;;;;;;;7.50;5.40;;;23.30;55.20;;;;;;5066670;28;20433;-73
2022/07/19 06:45:25;;;;;;;9.83;6.87;;;23.30;55.00;;;;;;5060104;28;20644;-73
2022/07/19 06:47:51;;;;;;;7.53;5.23;;;23.50;55.20;;;;;;5066065;28;20182;-73
2022/07/19 06:50:18;;;;;;;8.70;5.47;;;23.60;55.00;;;;;;5065039;28;20188;-72
2022/07/19 06:52:44;;;;;;;6.60;5.70;;;23.70;54.50;;;;;;5064681;28;20708;-75
2022/07/19 06:55:09;;;;;;;7.67;5.37;;;23.80;53.70;;;;;;5063831;28;20456;-77
2022/07/19 06:57:35;;;;;;;7.63;5.73;;;23.80;54.00;;;;;;5066391;28;20608;-73
2022/07/19 07:00:01;;;;;;;14.33;7.37;;;23.90;54.10;;;;;;5059511;28;20210;-73
2022/07/19 07:02:27;;;;;;;12.93;7.60;;;24.00;54.50;;;;;;5062674;28;20595;-72
2022/07/19 07:04:52;;;;;;;18.50;8.40;;;24.00;54.80;;;;;;5060281;28;20653;-74
2022/07/19 07:07:18;;;;;;;12.93;7.47;;;24.10;55.30;;;;;;5065421;28;20181;-74
2022/07/19 07:09:43;;;;;;;14.00;7.97;;;24.20;54.60;;;;;;5067013;28;20231;-76
2022/07/19 07:12:09;;;;;;;20.60;9.37;;;24.40;54.90;;;;;;5071591;28;20643;-74
2022/07/19 07:14:35;;;;;;;18.83;9.80;;;24.40;55.20;;;;;;5067406;28;20288;-74
2022/07/19 07:17:01;;;;;;;16.53;9.17;;;24.50;55.70;;;;;;5071379;28;20261;-73
2022/07/19 07:19:27;;;;;;;17.97;8.53;;;24.60;55.40;;;;;;5070428;28;20188;-72
2022/07/19 07:21:52;;;;;;;15.73;8.83;;;24.70;55.20;;;;;;5068724;28;20754;-73
2022/07/19 07:24:18;;;;;;;13.43;8.57;;;24.80;54.80;;;;;;5071159;28;22057;-72
2022/07/19 07:26:43;;;;;;;15.63;8.90;;;24.90;54.60;;;;;;5071647;28;20536;-74
2022/07/19 07:29:09;;;;;;;18.27;8.60;;;25.00;54.50;;;;;;5070032;28;20293;-74
2022/07/19 07:31:36;;;;;;;17.93;8.97;;;25.10;54.50;;;;;;5066948;28;20178;-73
2022/07/19 07:34:02;;;;;;;20.57;8.40;;;25.20;54.00;;;;;;5066231;28;20591;-73
2022/07/19 07:36:28;;;;;;;14.43;7.47;;;25.30;53.60;;;;;;5069288;28;20522;-75
2022/07/19 07:38:54;;;;;;;16.50;8.00;;;25.40;53.20;;;;;;5067687;28;20453;-72
2022/07/19 07:41:19;;;;;;;15.33;7.53;;;25.50;53.20;;;;;;5070489;28;20672;-73
2022/07/19 07:43:45;;;;;;;18.23;7.63;;;25.60;52.90;;;;;;5062418;28;20175;-73
2022/07/19 07:46:11;;;;;;;14.03;7.47;;;25.80;52.60;;;;;;5060912;28;20690;-73
2022/07/19 07:48:36;;;;;;;16.43;6.90;;;25.90;52.60;;;;;;5062465;28;20226;-73
2022/07/19 07:51:02;;;;;;;8.77;6.63;;;26.00;52.00;;;;;;5068539;28;20197;-73
2022/07/19 07:53:28;;;;;;;16.90;7.47;;;26.10;51.20;;;;;;5063952;28;20192;-73
2022/07/19 07:55:53;;;;;;;14.87;8.00;;;26.10;50.20;;;;;;5059821;28;20608;-72
2022/07/19 07:58:19;;;;;;;14.73;6.47;;;26.30;49.70;;;;;;5065312;28;20237;-72
2022/07/19 08:00:45;;;;;;;17.73;6.27;;;26.50;48.20;;;;;;5065415;28;20223;-74
2022/07/19 08:03:10;;;;;;;8.93;5.00;;;26.70;47.10;;;;;;5069747;28;20189;-75
2022/07/19 08:05:36;;;;;;;8.37;5.23;;;26.90;45.70;;;;;;5067585;28;20199;-74
2022/07/19 08:08:02;;;;;;;13.27;5.40;;;27.00;45.80;;;;;;5069919;28;20352;-73
2022/07/19 08:10:31;;;;;;;6.93;4.10;;;27.20;44.10;;;;;;5070403;28;20241;-74
2022/07/19 08:12:56;;;;;;;4.97;3.83;;;27.30;41.60;;;;;;5069522;28;21125;-74
2022/07/19 08:15:22;;;;;;;6.43;4.10;;;27.50;40.80;;;;;;5067349;28;20457;-75
2022/07/19 08:17:48;;;;;;;6.30;3.90;;;27.70;39.80;;;;;;5068672;28;20393;-75
2022/07/19 08:20:14;;;;;;;6.40;4.10;;;27.80;38.80;;;;;;5070172;28;20210;-75
2022/07/19 08:22:39;;;;;;;8.10;4.20;;;28.00;39.50;;;;;;5067949;28;20234;-74
2022/07/19 08:25:06;;;;;;;7.03;3.70;;;28.10;38.20;;;;;;5068756;28;20940;-74
2022/07/19 08:27:33;;;;;;;7.40;3.90;;;28.20;39.10;;;;;;5064832;28;20223;-73
2022/07/19 08:29:59;;;;;;;4.70;3.20;;;28.30;37.90;;;;;;5070345;28;20411;-76
2022/07/19 08:32:25;;;;;;;9.10;3.93;;;28.40;37.20;;;;;;5070057;28;20501;-75
2022/07/19 08:34:50;;;;;;;6.33;3.50;;;28.50;36.80;;;;;;5062859;28;20545;-75
2022/07/19 08:37:16;;;;;;;5.40;3.57;;;28.60;37.10;;;;;;5068997;28;20172;-75
2022/07/19 08:39:41;;;;;;;8.50;4.10;;;28.70;36.40;;;;;;5070722;28;20176;-75
2022/07/19 08:42:09;;;;;;;5.90;3.83;;;28.70;36.70;;;;;;5066834;28;20184;-74
2022/07/19 08:44:38;;;;;;;5.57;4.20;;;28.70;36.70;;;;;;5057741;28;20207;-74
2022/07/19 08:47:04;;;;;;;4.87;3.93;;;28.80;37.00;;;;;;5069054;28;20522;-74
2022/07/19 08:49:30;;;;;;;6.00;4.07;;;28.90;37.00;;;;;;5062986;28;20517;-73
2022/07/19 08:51:57;;;;;;;6.23;3.57;;;29.00;36.60;;;;;;5065781;28;20184;-74
2022/07/19 08:54:23;;;;;;;6.43;4.00;;;29.10;36.30;;;;;;5064995;28;20326;-74
2022/07/19 08:59:33;;;;;;;5.03;3.43;;;29.10;36.20;;;;;;5063576;28;20272;-74
2022/07/19 09:01:59;;;;;;;6.93;4.33;;;29.30;36.40;;;;;;5067106;28;20424;-72
2022/07/19 09:04:25;;;;;;;6.63;4.03;;;29.30;35.30;;;;;;5069340;28;20453;-75
2022/07/19 09:06:55;;;;;;;10.10;4.10;;;29.30;35.10;;;;;;5085126;28;20194;-74
2022/07/19 09:09:29;;;;;;;4.80;3.53;;;29.40;35.30;;;;;;5079361;28;20180;-74
2022/07/19 09:11:57;;;;;;;9.03;3.80;;;29.50;35.70;;;;;;5077443;28;20409;-73
2022/07/19 09:14:30;;;;;;;6.27;3.80;;;29.70;34.90;;;;;;5063708;28;20514;-74
2022/07/19 09:16:57;;;;;;;7.03;3.73;;;29.70;35.20;;;;;;5067489;28;20430;-74
2022/07/19 09:19:25;;;;;;;5.60;3.77;;;29.80;34.80;;;;;;5061780;28;20426;-74
2022/07/19 09:22:03;;;;;;;4.70;3.40;;;29.80;34.30;;;;;;5063891;28;20466;-74
2022/07/19 09:24:31;;;;;;;4.43;3.40;;;29.80;34.40;;;;;;5066761;28;20458;-74
2022/07/19 09:27:18;;;;;;;8.43;4.23;;;30.00;34.40;;;;;;5068670;28;20445;-75
2022/07/19 09:29:47;;;;;;;6.20;3.70;;;30.00;34.00;;;;;;5067830;28;20411;-74
2022/07/19 09:32:15;;;;;;;6.27;4.00;;;30.10;34.00;;;;;;5061898;28;20425;-75
2022/07/19 09:34:52;;;;;;;4.73;3.37;;;30.20;33.20;;;;;;5063793;28;20458;-74
2022/07/19 09:37:27;;;;;;;5.63;3.93;;;30.20;32.70;;;;;;5058933;28;20551;-74
2022/07/19 09:40:01;;;;;;;7.73;3.60;;;30.40;32.10;;;;;;5064038;28;20461;-73
2022/07/19 09:42:43;;;;;;;7.50;3.60;;;30.50;31.60;;;;;;5061677;28;20441;-75
2022/07/19 09:45:12;;;;;;;5.67;4.00;;;30.60;30.90;;;;;;5054255;28;20544;-75
2022/07/19 09:47:43;;;;;;;4.57;3.40;;;30.60;30.70;;;;;;5068961;28;20492;-73
2022/07/19 09:50:21;;;;;;;12.10;4.30;;;30.60;30.30;;;;;;5065652;28;20426;-73
2022/07/19 09:52:48;;;;;;;6.37;4.17;;;30.70;29.60;;;;;;5066887;28;20438;-73
2022/07/19 09:55:16;;;;;;;6.37;3.90;;;30.80;29.80;;;;;;5064009;28;20458;-74
2022/07/19 09:57:44;;;;;;;13.03;4.27;;;30.90;29.00;;;;;;5068372;28;20428;-74
2022/07/19 10:00:11;;;;;;;6.40;4.43;;;31.00;29.10;;;;;;5064107;28;20461;-73
2022/07/19 10:02:41;;;;;;;5.20;3.80;;;31.10;28.60;;;;;;5064706;28;20418;-74
2022/07/19 10:05:10;;;;;;;6.17;3.83;;;31.10;28.80;;;;;;5065709;28;20991;-73
2022/07/19 10:07:36;;;;;;;5.70;3.70;;;31.10;28.90;;;;;;5064457;28;20425;-74
2022/07/19 10:10:03;;;;;;;7.10;3.97;;;31.10;28.80;;;;;;5066827;28;20430;-73
2022/07/19 10:12:29;;;;;;;7.07;3.70;;;31.20;28.90;;;;;;5067085;28;20196;-74
2022/07/19 10:14:58;;;;;;;7.17;4.50;;;31.50;28.80;;;;;;5063760;28;20513;-77
2022/07/19 10:17:35;;;;;;;5.50;3.67;;;31.80;28.20;;;;;;5064241;28;20676;-74
2022/07/19 10:20:03;;;;;;;6.47;4.03;;;31.90;27.80;;;;;;5068026;28;20497;-74
2022/07/19 10:22:29;;;;;;;5.77;3.80;;;32.10;28.00;;;;;;5065332;28;20798;-75
2022/07/19 10:25:00;;;;;;;7.40;4.60;;;32.50;27.50;;;;;;5063624;28;20458;-74
2022/07/19 10:27:25;;;;;;;5.50;3.80;;;32.70;27.50;;;;;;5063243;28;20416;-73
2022/07/19 10:30:11;;;;;;;9.10;4.10;;;32.60;27.00;;;;;;5062545;28;20422;-74
2022/07/19 10:32:46;;;;;;;7.57;4.37;;;32.80;27.50;;;;;;5059814;28;20700;-74
2022/07/19 10:35:26;;;;;;;5.30;4.53;;;33.00;27.20;;;;;;5059331;28;20963;-74
2022/07/19 10:38:00;;;;;;;4.80;3.90;;;33.30;27.20;;;;;;5060069;28;20426;-74
2022/07/19 10:40:56;;;;;;;6.40;4.03;;;33.40;26.50;;;;;;5066311;28;20555;-75
2022/07/19 10:43:22;;;;;;;7.03;4.03;;;33.70;26.70;;;;;;5055014;28;20904;-74
2022/07/19 10:46:09;;;;;;;6.00;4.03;;;33.40;26.80;;;;;;5068174;28;20895;-75
2022/07/19 10:48:50;;;;;;;6.40;4.20;;;33.20;27.30;;;;;;5066677;28;20419;-75
2022/07/19 10:51:30;;;;;;;5.10;4.30;;;33.20;27.10;;;;;;5068650;28;20593;-73
2022/07/19 10:54:02;;;;;;;5.17;4.00;;;33.20;26.90;;;;;;5068266;28;20432;-73
2022/07/19 10:56:41;;;;;;;8.43;4.67;;;33.30;26.90;;;;;;5068426;28;20481;-73
2022/07/19 10:59:10;;;;;;;5.80;3.80;;;33.50;26.70;;;;;;5074085;28;21235;-75
2022/07/19 11:01:37;;;;;;;5.63;3.83;;;33.50;26.60;;;;;;5071614;28;20521;-73
2022/07/19 11:04:30;;;;;;;6.73;4.20;;;33.50;26.30;;;;;;5071016;28;20422;-74
2022/07/19 11:07:12;;;;;;;9.27;5.20;;;33.20;26.60;;;;;;5066944;28;20422;-74
2022/07/19 11:09:52;;;;;;;5.87;4.40;;;33.30;26.10;;;;;;5065008;28;20552;-73
2022/07/19 11:12:38;;;;;;;5.90;3.57;;;33.50;25.80;;;;;;5059907;28;20413;-75
2022/07/19 11:15:09;;;;;;;6.40;4.20;;;33.60;25.90;;;;;;5064653;28;20461;-75
2022/07/19 11:17:35;;;;;;;6.07;3.70;;;33.50;26.20;;;;;;5069738;28;20449;-74
2022/07/19 11:20:07;;;;;;;5.97;4.33;;;33.50;26.30;;;;;;5071206;28;20466;-74
2022/07/19 11:22:45;;;;;;;9.90;4.53;;;33.60;26.20;;;;;;5069478;28;20227;-74
2022/07/19 11:25:13;;;;;;;4.40;3.40;;;33.20;26.20;;;;;;5065174;28;21048;-74
2022/07/19 11:27:45;;;;;;;6.20;3.53;;;33.40;26.10;;;;;;5068020;28;20430;-75
2022/07/19 11:30:12;;;;;;;4.93;3.50;;;33.70;25.90;;;;;;5070941;28;20502;-74
2022/07/19 11:32:38;;;;;;;4.60;3.90;;;34.10;25.40;;;;;;5070151;28;20801;-76
2022/07/19 11:35:06;;;;;;;13.83;4.43;;;33.70;25.80;;;;;;5067137;28;20501;-75
2022/07/19 11:37:35;;;;;;;5.70;4.07;;;33.50;26.30;;;;;;5070838;28;20425;-75
2022/07/19 11:40:02;;;;;;;7.20;4.30;;;33.50;26.40;;;;;;5066517;28;20470;-74
2022/07/19 11:42:29;;;;;;;7.17;4.13;;;33.70;26.10;;;;;;5066914;28;20565;-74
2022/07/19 11:44:55;;;;;;;7.30;3.70;;;33.90;25.30;;;;;;5067163;28;20469;-73
2022/07/19 11:47:21;;;;;;;9.90;3.63;;;34.00;25.00;;;;;;5064220;28;20503;-73
2022/07/19 11:49:47;;;;;;;6.20;3.63;;;34.20;24.80;;;;;;5070159;28;20854;-73
2022/07/19 11:52:13;;;;;;;5.17;3.77;;;34.60;25.10;;;;;;5064105;28;20445;-75
2022/07/19 11:54:38;;;;;;;7.63;3.73;;;34.60;25.10;;;;;;5062553;28;20208;-74
2022/07/19 11:57:04;;;;;;;9.40;4.23;;;34.50;25.30;;;;;;5064197;28;20180;-73
2022/07/19 11:59:30;;;;;;;13.03;3.83;;;34.20;25.60;;;;;;5064055;28;20214;-74
2022/07/19 12:01:57;;;;;;;7.30;4.13;;;34.40;25.80;;;;;;5062178;28;20475;-74
2022/07/19 12:04:23;;;;;;;6.90;3.60;;;34.60;25.20;;;;;;5065852;28;20216;-73
2022/07/19 12:06:54;;;;;;;9.90;5.03;;;35.10;24.80;;;;;;5060502;28;20423;-73
2022/07/19 12:09:27;;;;;;;5.80;4.67;;;35.40;24.40;;;;;;5067998;28;20410;-76
2022/07/19 12:11:54;;;;;;;7.43;4.50;;;35.10;24.70;;;;;;5069501;28;20460;-75
2022/07/19 12:14:27;;;;;;;9.13;5.30;;;35.30;24.70;;;;;;5064952;28;20458;-75
2022/07/19 12:17:11;;;;;;;8.73;4.17;;;35.70;24.40;;;;;;5068197;28;20867;-75
2022/07/19 12:19:38;;;;;;;5.87;4.33;;;35.60;24.40;;;;;;5071937;28;20460;-74
2022/07/19 12:22:03;;;;;;;8.77;4.33;;;35.40;24.60;;;;;;5065387;28;20456;-75
2022/07/19 12:24:30;;;;;;;5.30;4.70;;;35.40;25.00;;;;;;5067058;28;20456;-75
2022/07/19 12:27:01;;;;;;;5.83;4.33;;;35.30;24.90;;;;;;5069169;28;20176;-74
2022/07/19 12:29:37;;;;;;;7.73;4.33;;;35.50;24.50;;;;;;5079395;28;20399;-75
2022/07/19 12:32:12;;;;;;;4.90;4.50;;;35.50;24.40;;;;;;5072162;28;20433;-74
2022/07/19 12:34:57;;;;;;;6.73;3.67;;;34.80;25.00;;;;;;5067752;28;20994;-74
2022/07/19 12:37:25;;;;;;;6.80;4.53;;;34.70;25.50;;;;;;5075207;28;20944;-73
2022/07/19 12:40:00;;;;;;;5.20;4.57;;;34.90;25.60;;;;;;5075954;28;20505;-74
2022/07/19 12:42:25;;;;;;;8.00;4.53;;;35.00;25.30;;;;;;5074830;28;20433;-74
2022/07/19 12:44:51;;;;;;;7.47;4.40;;;35.10;25.30;;;;;;5074289;28;20458;-74
2022/07/19 12:47:17;;;;;;;8.73;4.50;;;35.50;24.80;;;;;;5063047;28;20188;-74
2022/07/19 12:49:49;;;;;;;10.60;4.50;;;35.30;25.20;;;;;;5065769;28;20334;-74